createdAt,value
2023-05-17T00:03:00.418Z,9.10
2023-05-17T00:06:07.006Z,9.08
2023-05-17T00:09:10.652Z,9.07
2023-05-17T00:12:15.831Z,9.06
2023-05-17T00:15:21.480Z,9.00
2023-05-17T00:18:24.646Z,8.96
2023-05-17T00:21:27.431Z,8.98
2023-05-17T00:24:30.316Z,8.90
2023-05-17T00:27:33.031Z,8.88
2023-05-17T00:30:37.168Z,8.87
2023-05-17T00:33:39.904Z,8.84
2023-05-17T00:36:42.632Z,8.81
2023-05-17T00:39:45.382Z,8.78
2023-05-17T00:42:48.111Z,8.74
2023-05-17T00:45:52.191Z,8.74
2023-05-17T00:48:55.327Z,8.73
2023-05-17T00:51:58.142Z,8.66
2023-05-17T00:55:01.019Z,8.67
2023-05-17T00:58:03.845Z,8.65
2023-05-17T01:01:07.960Z,8.66
2023-05-17T01:04:11.309Z,8.63
2023-05-17T01:07:14.134Z,8.63
2023-05-17T01:10:16.867Z,8.52
2023-05-17T01:13:23.915Z,8.47
2023-05-17T01:16:34.453Z,8.46
2023-05-17T01:20:06.422Z,8.39
2023-05-17T01:23:36.645Z,8.30
2023-05-17T01:26:44.121Z,8.28
2023-05-17T01:29:49.072Z,8.26
2023-05-17T01:32:52.125Z,8.20
2023-05-17T01:35:57.072Z,8.10
2023-05-17T01:39:00.552Z,7.97
2023-05-17T01:42:12.752Z,7.85
2023-05-17T01:45:22.882Z,7.78
2023-05-17T01:48:32.586Z,7.72
2023-05-17T01:51:40.917Z,7.66
2023-05-17T01:54:48.934Z,7.61
2023-05-17T01:57:55.182Z,7.57
2023-05-17T02:01:03.173Z,7.56
2023-05-17T02:04:06.163Z,7.57
2023-05-17T02:07:08.983Z,7.55
2023-05-17T02:10:12.348Z,7.56
2023-05-17T02:13:16.475Z,7.48
2023-05-17T02:16:19.178Z,7.42
2023-05-17T02:19:22.041Z,7.40
2023-05-17T02:22:24.973Z,7.37
2023-05-17T02:25:28.095Z,7.35
2023-05-17T02:28:33.109Z,7.23
2023-05-17T02:31:36.215Z,7.19
2023-05-17T02:34:38.931Z,7.14
2023-05-17T02:37:41.961Z,7.07
2023-05-17T02:40:44.778Z,7.08
2023-05-17T02:43:48.917Z,7.09
2023-05-17T02:46:51.653Z,7.12
2023-05-17T02:49:54.759Z,7.09
2023-05-17T02:52:57.480Z,7.14
2023-05-17T02:56:00.213Z,7.11
2023-05-17T02:59:04.904Z,7.08
2023-05-17T03:02:08.124Z,7.14
2023-05-17T03:05:11.465Z,7.00
2023-05-17T03:08:14.657Z,6.90
2023-05-17T03:11:17.389Z,6.92
2023-05-17T03:14:21.434Z,6.86
2023-05-17T03:17:24.215Z,6.86
2023-05-17T03:20:26.949Z,6.78
2023-05-17T03:23:29.753Z,6.73
2023-05-17T03:26:33.518Z,6.70
2023-05-17T03:29:37.667Z,6.66
2023-05-17T03:32:40.772Z,6.65
2023-05-17T03:35:43.644Z,6.61
2023-05-17T03:38:46.394Z,6.56
2023-05-17T03:41:49.125Z,6.55
2023-05-17T03:44:53.252Z,6.55
2023-05-17T03:47:56.183Z,6.57
2023-05-17T03:50:59.341Z,6.62
2023-05-17T03:54:02.309Z,6.68
2023-05-17T03:57:05.437Z,6.66
2023-05-17T04:00:12.343Z,6.67
2023-05-17T04:03:15.846Z,6.71
2023-05-17T04:06:19.630Z,6.74
2023-05-17T04:09:22.344Z,6.75
2023-05-17T04:12:25.097Z,6.80
2023-05-17T04:15:29.372Z,6.87
2023-05-17T04:18:32.265Z,6.86
2023-05-17T04:21:35.129Z,6.89
2023-05-17T04:24:38.085Z,6.90
2023-05-17T04:27:40.971Z,6.92
2023-05-17T04:30:45.932Z,6.92
2023-05-17T04:33:48.717Z,7.05
2023-05-17T04:36:51.797Z,7.10
2023-05-17T04:39:54.564Z,7.12
2023-05-17T04:42:57.365Z,7.17
2023-05-17T04:46:02.360Z,7.19
2023-05-17T04:49:05.268Z,7.28
2023-05-17T04:52:08.463Z,7.35
2023-05-17T04:55:11.403Z,7.53
2023-05-17T04:58:16.725Z,7.77
2023-05-17T05:01:22.142Z,8.07
2023-05-17T05:04:25.613Z,9.18
2023-05-17T05:07:29.040Z,10.18
2023-05-17T05:10:31.776Z,11.00
2023-05-17T05:13:37.510Z,11.70
2023-05-17T05:16:41.642Z,12.28
2023-05-17T05:19:44.389Z,12.67
2023-05-17T05:22:47.140Z,13.03
2023-05-17T05:25:49.955Z,13.05
2023-05-17T05:28:52.671Z,12.76
2023-05-17T05:31:56.748Z,12.31
2023-05-17T05:34:59.801Z,12.11
2023-05-17T05:38:03.232Z,11.89
2023-05-17T05:41:06.033Z,11.93
2023-05-17T05:44:09.014Z,12.42
2023-05-17T05:47:13.102Z,13.20
2023-05-17T05:50:16.319Z,13.87
2023-05-17T05:53:19.931Z,14.18
2023-05-17T05:56:24.645Z,14.50
2023-05-17T05:59:28.000Z,14.93
2023-05-17T06:02:35.365Z,15.44
2023-05-17T06:05:38.544Z,15.86
2023-05-17T06:08:45.759Z,15.85
2023-05-17T06:11:48.504Z,15.49
2023-05-17T06:14:51.223Z,15.24
2023-05-17T06:17:55.384Z,15.01
2023-05-17T06:20:58.174Z,14.61
2023-05-17T06:24:02.749Z,14.35
2023-05-17T06:27:09.964Z,14.44
2023-05-17T06:30:15.773Z,14.99
2023-05-17T06:33:19.943Z,15.26
2023-05-17T06:36:23.740Z,15.35
2023-05-17T06:39:27.163Z,15.48
2023-05-17T06:42:30.782Z,15.62
2023-05-17T06:45:33.532Z,15.56
2023-05-17T06:48:37.715Z,16.20
2023-05-17T06:51:40.716Z,16.72
2023-05-17T06:54:46.393Z,17.30
2023-05-17T06:57:49.144Z,17.72
2023-05-17T07:00:51.877Z,18.27
2023-05-17T07:03:56.895Z,18.93
2023-05-17T07:06:59.682Z,19.31
2023-05-17T07:10:05.974Z,19.35
2023-05-17T07:13:08.950Z,18.95
2023-05-17T07:16:11.823Z,18.29
2023-05-17T07:19:16.157Z,17.58
2023-05-17T07:22:19.233Z,16.61
2023-05-17T07:25:22.136Z,15.74
2023-05-17T07:28:31.057Z,14.89
2023-05-17T07:31:33.812Z,14.37
2023-05-17T07:34:38.306Z,14.22
2023-05-17T07:37:41.241Z,13.82
2023-05-17T07:40:44.330Z,13.72
2023-05-17T07:43:47.085Z,13.50
2023-05-17T07:46:50.841Z,13.51
2023-05-17T07:49:55.081Z,13.69
2023-05-17T07:52:58.025Z,13.83
2023-05-17T07:56:03.178Z,13.99
2023-05-17T07:59:06.054Z,13.80
2023-05-17T08:02:09.890Z,13.46
2023-05-17T08:05:14.065Z,13.23
2023-05-17T08:08:16.785Z,13.00
2023-05-17T08:11:19.538Z,13.12
2023-05-17T08:14:24.185Z,13.03
2023-05-17T08:17:27.032Z,13.04
2023-05-17T08:20:31.296Z,12.83
2023-05-17T08:23:40.348Z,12.72
2023-05-17T08:26:43.087Z,12.86
2023-05-17T08:29:45.846Z,12.87
2023-05-17T08:32:49.292Z,12.84
2023-05-17T08:35:55.300Z,13.03
2023-05-17T08:38:58.108Z,12.96
2023-05-17T08:42:02.606Z,12.99
2023-05-17T08:45:08.517Z,13.09
2023-05-17T08:48:11.506Z,13.00
2023-05-17T08:51:16.604Z,13.08
2023-05-17T08:54:19.358Z,13.19
2023-05-17T08:57:24.408Z,13.42
2023-05-17T09:00:28.210Z,13.47
2023-05-17T09:03:33.404Z,13.65
2023-05-17T09:06:38.187Z,13.85
2023-05-17T09:09:41.763Z,14.09
2023-05-17T09:12:45.533Z,14.33
2023-05-17T09:15:49.557Z,14.67
2023-05-17T09:18:55.733Z,15.04
2023-05-17T09:22:02.601Z,15.46
2023-05-17T09:25:06.048Z,15.60
2023-05-17T09:28:09.022Z,15.76
2023-05-17T09:31:13.625Z,15.91
2023-05-17T09:34:19.892Z,15.85
2023-05-17T09:37:24.466Z,15.73
2023-05-17T09:40:27.281Z,15.56
2023-05-17T09:43:30.926Z,15.57
2023-05-17T09:46:35.315Z,15.65
2023-05-17T09:49:38.048Z,15.55
2023-05-17T09:52:45.136Z,15.33
2023-05-17T09:55:49.239Z,15.08
2023-05-17T09:58:52.090Z,15.03
2023-05-17T10:01:56.088Z,15.24
2023-05-17T10:04:59.556Z,15.12
2023-05-17T10:08:05.923Z,15.15
2023-05-17T10:11:10.560Z,15.16
2023-05-17T10:14:18.904Z,15.26
2023-05-17T10:17:22.056Z,15.13
2023-05-17T10:20:25.100Z,14.83
2023-05-17T10:23:31.116Z,15.07
2023-05-17T10:26:35.649Z,14.99
2023-05-17T10:29:40.686Z,14.97
2023-05-17T10:32:46.602Z,15.19
2023-05-17T10:35:51.167Z,15.40
2023-05-17T10:38:55.901Z,15.71
2023-05-17T10:42:13.814Z,16.03
2023-05-17T10:45:18.062Z,16.40
2023-05-17T10:48:20.925Z,16.63
2023-05-17T10:51:25.588Z,16.87
2023-05-17T10:54:38.646Z,17.07
2023-05-17T11:00:49.287Z,17.41
2023-05-17T11:03:52.056Z,17.55
2023-05-17T11:07:16.797Z,17.45
2023-05-17T11:10:20.950Z,17.55
2023-05-17T11:13:27.200Z,17.81
2023-05-17T11:16:36.780Z,17.83
2023-05-17T11:19:39.734Z,18.13
2023-05-17T11:22:45.475Z,18.01
2023-05-17T11:25:52.131Z,17.96
2023-05-17T11:29:03.726Z,17.92
2023-05-17T11:32:07.657Z,17.75
2023-05-17T11:35:13.171Z,17.75
2023-05-17T11:38:18.913Z,17.86
2023-05-17T11:41:26.918Z,17.73
2023-05-17T11:44:31.511Z,17.38
2023-05-17T11:47:34.595Z,17.49
2023-05-17T11:50:37.996Z,17.37
2023-05-17T11:53:41.333Z,17.50
2023-05-17T11:56:45.888Z,17.71
2023-05-17T11:59:48.764Z,17.81
2023-05-17T12:02:52.067Z,17.99
2023-05-17T12:06:03.920Z,18.26
2023-05-17T12:09:10.800Z,18.48
2023-05-17T12:12:15.272Z,18.65
2023-05-17T12:15:20.518Z,18.64
2023-05-17T12:18:23.307Z,18.29
2023-05-17T12:21:26.161Z,18.23
2023-05-17T12:24:38.561Z,18.42
2023-05-17T12:27:43.008Z,18.50
2023-05-17T12:30:46.605Z,18.91
2023-05-17T12:33:50.906Z,19.23
2023-05-17T12:36:54.521Z,19.23
2023-05-17T12:39:58.784Z,19.21
2023-05-17T12:43:06.269Z,18.65
2023-05-17T12:46:10.431Z,18.29
2023-05-17T12:49:13.509Z,18.29
2023-05-17T12:52:18.998Z,18.20
2023-05-17T12:55:21.767Z,18.54
2023-05-17T12:58:26.072Z,18.80
2023-05-17T13:01:34.424Z,18.74
2023-05-17T13:04:38.804Z,18.67
2023-05-17T13:15:59.471Z,17.69
2023-05-17T13:19:02.557Z,17.75
2023-05-17T13:22:06.233Z,17.67
2023-05-17T13:25:09.425Z,18.03
2023-05-17T13:28:12.274Z,18.04
2023-05-17T13:31:17.053Z,18.05
2023-05-17T13:34:21.103Z,17.96
2023-05-17T13:37:23.937Z,18.09
2023-05-17T13:40:26.812Z,17.97
2023-05-17T13:43:29.590Z,17.63
2023-05-17T13:46:33.730Z,17.46
2023-05-17T13:49:37.422Z,17.29
2023-05-17T13:52:42.030Z,17.68
2023-05-17T13:55:44.773Z,17.74
2023-05-17T13:58:48.528Z,17.98
2023-05-17T14:01:53.843Z,18.23
2023-05-17T14:04:56.572Z,18.09
2023-05-17T14:07:59.270Z,18.36
2023-05-17T14:11:02.219Z,18.65
2023-05-17T14:14:05.190Z,18.65
2023-05-17T14:17:09.231Z,18.76
2023-05-17T14:20:14.241Z,18.95
2023-05-17T14:23:17.081Z,19.18
2023-05-17T14:26:19.879Z,19.24
2023-05-17T14:29:22.590Z,19.16
2023-05-17T14:32:26.869Z,19.03
2023-05-17T14:35:30.654Z,19.13
2023-05-17T14:38:33.454Z,18.85
2023-05-17T14:41:36.429Z,18.80
2023-05-17T14:44:39.781Z,18.94
2023-05-17T14:47:43.860Z,18.67
2023-05-17T14:50:46.662Z,18.46
2023-05-17T14:53:49.415Z,18.60
2023-05-17T14:56:52.374Z,18.75
2023-05-17T14:59:55.164Z,18.67
2023-05-17T15:02:59.392Z,18.91
2023-05-17T15:06:05.682Z,19.08
2023-05-17T15:09:13.130Z,19.16
2023-05-17T15:12:15.902Z,18.92
2023-05-17T15:15:20.585Z,18.67
2023-05-17T15:18:24.728Z,18.50
2023-05-17T15:21:27.749Z,18.53
2023-05-17T15:24:30.744Z,18.73
2023-05-17T15:27:33.596Z,19.06
2023-05-17T15:30:36.351Z,19.20
2023-05-17T15:33:43.111Z,19.19
2023-05-17T15:36:46.006Z,18.97
2023-05-17T15:39:49.112Z,19.12
2023-05-17T15:42:52.812Z,18.89
2023-05-17T15:45:55.508Z,18.54
2023-05-17T15:48:59.591Z,18.21
2023-05-17T15:52:02.409Z,18.20
2023-05-17T15:55:05.901Z,18.51
2023-05-17T15:58:10.845Z,18.91
2023-05-17T16:01:13.595Z,18.97
2023-05-17T16:04:17.779Z,18.89
2023-05-17T16:07:20.606Z,18.88
2023-05-17T16:10:23.693Z,19.06
2023-05-17T16:13:26.594Z,19.21
2023-05-17T16:16:29.599Z,19.28
2023-05-17T16:19:34.741Z,19.49
2023-05-17T16:22:37.651Z,19.09
2023-05-17T16:25:40.816Z,18.63
2023-05-17T16:28:44.023Z,18.39
2023-05-17T16:31:48.919Z,18.25
2023-05-17T16:34:53.205Z,18.16
2023-05-17T16:37:56.575Z,18.29
2023-05-17T16:41:03.010Z,18.59
2023-05-17T16:44:06.239Z,18.72
2023-05-17T16:47:09.233Z,18.64
2023-05-17T16:50:14.143Z,18.42
2023-05-17T16:53:17.093Z,18.51
2023-05-17T16:56:19.864Z,18.42
2023-05-17T16:59:22.977Z,18.31
2023-05-17T17:02:26.016Z,18.09
2023-05-17T17:05:30.214Z,17.86
2023-05-17T17:08:32.932Z,17.65
2023-05-17T17:11:35.933Z,17.64
2023-05-17T17:14:39.388Z,17.62
2023-05-17T17:17:42.832Z,17.50
2023-05-17T17:20:47.367Z,17.43
2023-05-17T17:23:50.348Z,17.50
2023-05-17T17:26:53.764Z,17.35
2023-05-17T17:29:56.802Z,17.51
2023-05-17T17:32:59.604Z,17.62
2023-05-17T17:36:04.494Z,17.63
2023-05-17T17:39:07.471Z,17.68
2023-05-17T17:42:10.662Z,17.63
2023-05-17T17:45:13.411Z,17.42
2023-05-17T17:48:16.379Z,17.32
2023-05-17T17:51:20.731Z,17.14
2023-05-17T17:54:23.709Z,17.04
2023-05-17T17:57:26.695Z,16.83
2023-05-17T18:00:29.956Z,16.67
2023-05-17T18:03:33.205Z,16.55
2023-05-17T18:06:37.643Z,16.43
2023-05-17T18:09:40.540Z,16.28
2023-05-17T18:12:43.547Z,16.13
2023-05-17T18:15:46.362Z,16.00
2023-05-17T18:18:49.271Z,15.86
2023-05-17T18:21:53.532Z,15.74
2023-05-17T18:24:56.638Z,15.62
2023-05-17T18:27:59.480Z,15.50
2023-05-17T18:31:02.331Z,15.46
2023-05-17T18:34:05.064Z,15.35
2023-05-17T18:37:09.249Z,15.21
2023-05-17T18:40:13.316Z,15.23
2023-05-17T18:43:16.238Z,15.22
2023-05-17T18:46:19.099Z,15.14
2023-05-17T18:49:22.241Z,14.97
2023-05-17T18:52:26.434Z,14.82
2023-05-17T18:55:29.346Z,14.72
2023-05-17T18:58:32.266Z,14.58
2023-05-17T19:01:35.221Z,14.50
2023-05-17T19:04:38.631Z,14.42
2023-05-17T19:07:42.980Z,14.33
2023-05-17T19:10:46.440Z,14.23
2023-05-17T19:13:49.342Z,14.11
2023-05-17T19:16:53.056Z,14.00
2023-05-17T19:19:55.939Z,13.97
2023-05-17T19:23:00.735Z,13.85
2023-05-17T19:26:03.954Z,13.77
2023-05-17T19:29:07.162Z,13.70
2023-05-17T19:32:09.914Z,13.56
2023-05-17T19:35:12.670Z,13.38
2023-05-17T19:38:16.903Z,13.32
2023-05-17T19:41:20.351Z,13.24
2023-05-17T19:44:23.072Z,13.17
2023-05-17T19:47:25.781Z,13.10
2023-05-17T19:50:28.725Z,12.94
2023-05-17T19:53:47.976Z,12.92
2023-05-17T19:56:54.069Z,12.84
2023-05-17T19:59:56.880Z,12.82
2023-05-17T20:02:59.850Z,12.74
2023-05-17T20:06:03.723Z,12.71
2023-05-17T20:09:08.002Z,12.65
2023-05-17T20:12:10.978Z,12.63
2023-05-17T20:15:16.585Z,12.54
2023-05-17T20:18:20.048Z,12.49
2023-05-17T20:21:23.359Z,12.46
2023-05-17T20:24:29.077Z,12.41
2023-05-17T20:27:31.866Z,12.36
2023-05-17T20:30:34.647Z,12.29
2023-05-17T20:33:37.474Z,12.21
2023-05-17T20:36:40.158Z,12.15
2023-05-17T20:39:44.365Z,12.06
2023-05-17T20:42:48.515Z,12.02
2023-05-17T20:45:53.757Z,11.89
2023-05-17T20:48:58.136Z,11.84
2023-05-17T20:52:03.585Z,11.74
2023-05-17T20:55:09.715Z,11.69
2023-05-17T20:58:12.432Z,11.61
2023-05-17T21:01:15.176Z,11.47
2023-05-17T21:04:17.933Z,11.44
2023-05-17T21:07:21.008Z,11.41
2023-05-17T21:10:25.107Z,11.29
2023-05-17T21:13:27.878Z,11.17
2023-05-17T21:16:30.904Z,11.20
2023-05-17T21:19:33.872Z,11.15
2023-05-17T21:22:37.470Z,11.14
2023-05-17T21:25:41.954Z,11.07
2023-05-17T21:28:44.712Z,11.02
2023-05-17T21:31:47.545Z,10.97
2023-05-17T21:34:52.147Z,10.91
2023-05-17T21:37:56.480Z,10.89
2023-05-17T21:41:00.625Z,10.83
2023-05-17T21:44:03.788Z,10.81
2023-05-17T21:47:06.675Z,10.82
2023-05-17T21:50:10.887Z,10.73
2023-05-17T21:53:14.032Z,10.68
2023-05-17T21:56:18.270Z,10.60
2023-05-17T21:59:21.030Z,10.57
2023-05-17T22:02:24.120Z,10.47
2023-05-17T22:05:27.188Z,10.40
2023-05-17T22:08:30.051Z,10.32
2023-05-17T22:11:39.034Z,10.27
2023-05-17T22:14:43.367Z,10.20
2023-05-17T22:17:51.873Z,10.14
2023-05-17T22:20:59.432Z,10.02
2023-05-17T22:24:02.732Z,9.97
2023-05-17T22:27:07.216Z,9.90
2023-05-17T22:30:13.859Z,9.87
2023-05-17T22:33:16.894Z,9.83
2023-05-17T22:36:19.687Z,9.83
2023-05-17T22:39:22.387Z,9.73
2023-05-17T22:42:26.666Z,9.72
2023-05-17T22:45:33.109Z,9.66
2023-05-17T22:48:37.684Z,9.61
2023-05-17T22:51:40.518Z,9.53
2023-05-17T22:54:43.298Z,9.45
2023-05-17T22:57:47.504Z,9.41
2023-05-17T23:00:51.506Z,9.36
2023-05-17T23:03:54.328Z,9.33
2023-05-17T23:07:01.972Z,9.28
2023-05-17T23:10:06.879Z,9.22
2023-05-17T23:13:11.062Z,9.15
2023-05-17T23:16:14.768Z,9.09
2023-05-17T23:19:18.185Z,9.04
2023-05-17T23:22:20.987Z,9.01
2023-05-17T23:25:23.745Z,8.95
2023-05-17T23:28:27.823Z,8.91
2023-05-17T23:31:30.946Z,8.87
2023-05-17T23:34:33.713Z,8.80
2023-05-17T23:37:37.511Z,8.74
2023-05-17T23:40:40.236Z,8.66
2023-05-17T23:43:44.373Z,8.62
2023-05-17T23:46:47.153Z,8.58
2023-05-17T23:49:49.846Z,8.50
2023-05-17T23:52:52.584Z,8.50
2023-05-17T23:55:55.550Z,8.46
2023-05-17T23:58:59.664Z,8.42
